Time;durP1;ratioP1;P1;durP2;ratioP2;P2;SDS_P1;SDS_P2;PMS_P1;PMS_P2;Temp;Humidity;BMP_temperature;BMP_pressure;BME280_temperature;BME280_humidity;BME280_pressure;Samples;Min_cycle;Max_cycle;Signal;HPM_P1;HPM_P2
2022/05/11 00:00:49;;;;;;;3.63;2.20;;;;;;;18.25;54.31;100762.31;4990430;28;20443;-71
2022/05/11 00:03:15;;;;;;;5.32;2.67;;;;;;;18.11;54.89;100755.13;4990262;28;20016;-73
2022/05/11 00:05:43;;;;;;;2.40;2.17;;;;;;;18.10;54.79;100746.25;4986838;28;20636;-72
2022/05/11 00:08:08;;;;;;;4.82;2.55;;;;;;;18.07;54.83;100740.44;4968439;28;20029;-74
2022/05/11 00:10:33;;;;;;;3.58;2.42;;;;;;;17.96;55.23;100736.38;4989908;28;20040;-72
2022/05/11 00:12:59;;;;;;;2.97;2.08;;;;;;;17.94;54.74;100739.25;5008180;28;20005;-72
2022/05/11 00:15:25;;;;;;;5.60;2.42;;;;;;;18.04;54.79;100740.84;4971732;28;20493;-75
2022/05/11 00:17:50;;;;;;;7.03;2.20;;;;;;;17.86;54.46;100733.97;4968025;28;20412;-74
2022/05/11 00:20:16;;;;;;;2.40;2.20;;;;;;;17.76;54.83;100728.88;4973832;28;20040;-72
2022/05/11 00:22:44;;;;;;;2.67;1.92;;;;;;;17.92;54.93;100732.41;5000399;28;20021;-70
2022/05/11 00:25:11;;;;;;;5.35;2.42;;;;;;;17.92;55.44;100721.72;4984967;28;20001;-72
2022/05/11 00:27:40;;;;;;;5.30;2.10;;;;;;;17.69;55.65;100734.13;5001095;28;20124;-72
2022/05/11 00:30:09;;;;;;;4.35;2.40;;;;;;;17.62;55.92;100724.38;4984018;28;20020;-73
2022/05/11 00:32:34;;;;;;;3.40;2.78;;;;;;;17.54;56.99;100727.13;5001061;28;20851;-72
2022/05/11 00:34:59;;;;;;;4.45;2.63;;;;;;;17.48;56.97;100721.47;4999864;28;20030;-74
2022/05/11 00:37:27;;;;;;;3.72;2.25;;;;;;;17.39;57.35;100722.59;4997776;28;20034;-72
2022/05/11 00:39:52;;;;;;;8.25;2.70;;;;;;;17.25;58.35;100715.38;4971138;28;20025;-72
2022/05/11 00:42:20;;;;;;;6.05;2.92;;;;;;;17.29;58.19;100714.81;4953667;28;20021;-72
2022/05/11 00:44:48;;;;;;;5.10;2.60;;;;;;;17.25;58.42;100707.34;4978081;28;20025;-72
2022/05/11 00:47:38;;;;;;;4.50;2.42;;;;;;;17.21;58.73;100709.53;4985007;28;20014;-71
2022/05/11 00:50:10;;;;;;;7.70;2.53;;;;;;;17.08;58.80;100704.81;4969515;28;20010;-72
2022/05/11 00:52:49;;;;;;;4.03;2.45;;;;;;;17.09;58.88;100706.50;4957259;28;20018;-71
2022/05/11 00:55:35;;;;;;;3.47;2.63;;;;;;;17.11;59.58;100706.31;4985480;28;20022;-71
2022/05/11 00:58:27;;;;;;;5.97;2.53;;;;;;;16.99;60.16;100700.53;4986378;28;20152;-71
2022/05/11 01:00:53;;;;;;;3.17;2.47;;;;;;;16.95;60.12;100697.41;4970444;28;20079;-72
2022/05/11 01:03:23;;;;;;;4.82;2.88;;;;;;;16.95;60.59;100704.56;5006504;28;21020;-72
2022/05/11 01:05:49;;;;;;;4.43;2.38;;;;;;;16.91;60.56;100697.97;4983546;28;20457;-72
2022/05/11 01:08:15;;;;;;;3.50;2.60;;;;;;;16.83;61.18;100691.59;5008502;28;20817;-71
2022/05/11 01:10:41;;;;;;;3.63;2.47;;;;;;;16.80;61.04;100683.13;5014345;28;20022;-72
2022/05/11 01:13:08;;;;;;;3.13;2.25;;;;;;;16.76;61.07;100684.50;4980202;28;20078;-71
2022/05/11 01:15:33;;;;;;;3.83;2.60;;;;;;;16.74;61.32;100678.53;4941927;28;20420;-71
2022/05/11 01:17:59;;;;;;;4.75;2.40;;;;;;;16.74;61.31;100676.66;4959199;28;20383;-72
2022/05/11 01:20:25;;;;;;;3.22;2.75;;;;;;;16.73;61.42;100679.53;4955143;28;20083;-73
2022/05/11 01:23:00;;;;;;;9.18;3.17;;;;;;;16.62;62.07;100673.56;4944304;28;20013;-72
2022/05/11 01:25:25;;;;;;;6.55;2.70;;;;;;;16.62;62.05;100673.56;4928016;28;20373;-72
2022/05/11 01:27:51;;;;;;;3.05;2.50;;;;;;;16.62;62.59;100672.75;4943194;28;20581;-73
2022/05/11 01:30:21;;;;;;;3.25;2.80;;;;;;;16.66;62.45;100668.72;4942000;28;20042;-72
2022/05/11 01:32:51;;;;;;;3.85;2.63;;;;;;;16.63;62.59;100663.72;4942561;28;20041;-72
2022/05/11 01:35:38;;;;;;;5.82;3.08;;;;;;;16.61;62.87;100666.59;4957926;28;20458;-72
2022/05/11 01:38:17;;;;;;;3.15;2.83;;;;;;;16.54;63.54;100662.13;5001957;28;20099;-73
2022/05/11 01:40:42;;;;;;;3.97;2.28;;;;;;;16.59;63.25;100657.09;4950936;28;20702;-72
2022/05/11 01:43:12;;;;;;;5.95;3.08;;;;;;;16.53;63.54;100653.28;4961386;28;20130;-72
2022/05/11 01:45:37;;;;;;;4.78;2.80;;;;;;;16.43;63.83;100647.34;4951361;28;20218;-72
2022/05/11 01:48:05;;;;;;;5.57;2.95;;;;;;;16.39;63.71;100638.84;4945491;28;20018;-75
2022/05/11 01:50:31;;;;;;;3.78;2.88;;;;;;;16.36;63.50;100639.22;4983133;28;20053;-72
2022/05/11 01:52:56;;;;;;;5.60;2.85;;;;;;;16.35;63.42;100640.22;4976833;28;20133;-73
2022/05/11 01:55:22;;;;;;;2.83;2.60;;;;;;;16.21;63.93;100641.81;4960744;28;20037;-72
2022/05/11 01:57:47;;;;;;;5.00;2.97;;;;;;;16.16;64.12;100636.19;4962490;28;20022;-70
2022/05/11 02:00:13;;;;;;;6.35;3.00;;;;;;;16.15;64.62;100634.50;4963028;28;20022;-71
2022/05/11 02:02:38;;;;;;;4.07;3.00;;;;;;;16.16;64.51;100638.00;4979247;28;20857;-72
2022/05/11 02:07:49;;;;;;;6.80;2.92;;;;;;;15.93;65.11;100626.28;4952136;28;20049;-72
2022/05/11 02:10:15;;;;;;;4.75;2.78;;;;;;;15.89;65.38;100634.81;4979794;28;20332;-72
2022/05/11 02:12:41;;;;;;;3.88;2.92;;;;;;;15.85;65.24;100629.00;4982477;28;20036;-70
2022/05/11 02:15:08;;;;;;;3.25;2.92;;;;;;;15.85;65.08;100621.00;4959128;28;20029;-72
2022/05/11 02:17:33;;;;;;;6.70;3.13;;;;;;;15.76;65.24;100625.47;4939673;28;20030;-73
2022/05/11 02:19:58;;;;;;;3.50;2.72;;;;;;;15.75;65.39;100617.66;4941474;28;20013;-72
2022/05/11 02:22:26;;;;;;;3.20;2.92;;;;;;;15.77;65.72;100615.66;4961629;28;20015;-72
2022/05/11 02:24:54;;;;;;;4.30;3.08;;;;;;;15.76;65.86;100619.31;4960748;28;20090;-74
2022/05/11 02:27:20;;;;;;;6.78;3.08;;;;;;;15.78;65.85;100618.16;4961322;28;20709;-70
2022/05/11 02:29:45;;;;;;;4.00;3.22;;;;;;;15.65;66.48;100615.19;4974586;28;20035;-71
2022/05/11 02:32:11;;;;;;;3.42;3.15;;;;;;;15.62;66.57;100607.56;4982438;28;20675;-71
2022/05/11 02:37:20;;;;;;;7.00;3.15;;;;;;;15.57;66.78;100597.41;4991753;28;20052;-72
2022/05/11 02:39:46;;;;;;;4.50;3.20;;;;;;;15.48;67.19;100602.94;4988785;28;20573;-72
2022/05/11 02:42:16;;;;;;;4.32;3.47;;;;;;;15.47;67.49;100596.78;5004456;28;20021;-73
2022/05/11 02:44:41;;;;;;;4.63;3.05;;;;;;;15.41;67.57;100598.31;5012912;28;20458;-73
2022/05/11 02:47:07;;;;;;;3.38;3.17;;;;;;;15.30;67.92;100593.34;4967904;28;20014;-72
2022/05/11 02:49:32;;;;;;;3.17;2.97;;;;;;;15.32;68.36;100596.66;4952167;28;20018;-72
2022/05/11 02:51:58;;;;;;;4.30;3.88;;;;;;;15.30;68.13;100588.03;4968383;28;20030;-72
2022/05/11 02:54:24;;;;;;;3.85;3.53;;;;;;;15.23;68.64;100582.53;4958272;28;20806;-71
2022/05/11 02:56:49;;;;;;;3.50;3.20;;;;;;;15.16;68.88;100578.03;4976203;28;20465;-75
2022/05/11 02:59:14;;;;;;;4.38;3.50;;;;;;;15.14;69.29;100572.06;4992369;28;20448;-70
2022/05/11 03:01:43;;;;;;;3.75;3.33;;;;;;;15.09;69.33;100578.75;4976197;28;20020;-72
2022/05/11 03:04:09;;;;;;;3.97;3.65;;;;;;;15.14;69.44;100572.06;4995228;28;20358;-72
2022/05/11 03:06:34;;;;;;;4.15;3.42;;;;;;;15.06;69.63;100571.09;4999651;28;20218;-72
2022/05/11 03:09:00;;;;;;;3.75;3.45;;;;;;;15.16;69.42;100568.22;4983065;28;20513;-72
2022/05/11 03:11:25;;;;;;;3.95;3.65;;;;;;;15.13;69.46;100565.91;4958228;28;20029;-71
2022/05/11 03:13:50;;;;;;;4.15;3.75;;;;;;;15.11;69.66;100563.38;4941641;28;20014;-71
2022/05/11 03:16:16;;;;;;;5.32;3.55;;;;;;;15.22;69.16;100556.06;4976383;28;20022;-73
2022/05/11 03:18:41;;;;;;;5.18;3.50;;;;;;;15.15;69.32;100560.41;4954778;28;20748;-72
2022/05/11 03:21:07;;;;;;;3.60;3.33;;;;;;;15.05;69.76;100553.44;4954761;28;20088;-72
2022/05/11 03:23:35;;;;;;;4.18;3.78;;;;;;;15.04;69.84;100551.75;4939240;28;20029;-72
2022/05/11 03:26:01;;;;;;;6.60;3.75;;;;;;;14.97;70.36;100552.63;4971189;28;21100;-72
2022/05/11 03:28:26;;;;;;;4.45;3.55;;;;;;;14.93;70.59;100550.31;4958032;28;20014;-72
2022/05/11 03:30:52;;;;;;;4.90;3.75;;;;;;;14.89;70.74;100548.97;4962206;28;20007;-72
2022/05/11 03:36:01;;;;;;;3.83;3.50;;;;;;;14.83;71.25;100538.16;4947586;28;20076;-72
2022/05/11 03:38:27;;;;;;;3.78;3.55;;;;;;;14.94;70.85;100545.78;4986086;28;20443;-70
2022/05/11 03:40:52;;;;;;;4.10;3.58;;;;;;;14.85;70.75;100541.47;4980002;28;20017;-71
2022/05/11 03:43:17;;;;;;;3.97;3.47;;;;;;;14.77;71.31;100545.00;4998912;28;20098;-72
2022/05/11 03:45:43;;;;;;;3.75;3.45;;;;;;;14.72;71.38;100542.84;4967687;28;20974;-72
2022/05/11 03:48:08;;;;;;;4.63;3.50;;;;;;;14.85;70.71;100542.31;4956178;28;20145;-72
2022/05/11 03:50:34;;;;;;;3.67;3.40;;;;;;;14.63;71.22;100530.53;4940779;28;20102;-73
2022/05/11 03:53:00;;;;;;;3.80;3.50;;;;;;;14.57;71.42;100532.00;4962708;28;20026;-72
2022/05/11 03:55:26;;;;;;;3.88;3.58;;;;;;;14.54;71.62;100532.34;4982048;28;20952;-71
2022/05/11 03:57:52;;;;;;;5.03;3.60;;;;;;;14.42;72.23;100531.03;4980682;28;20774;-72
2022/05/11 04:00:21;;;;;;;7.35;4.00;;;;;;;14.37;72.34;100528.88;4943763;28;20863;-73
2022/05/11 04:02:46;;;;;;;6.50;3.83;;;;;;;14.30;73.02;100527.03;4947396;28;20041;-73
2022/05/11 04:05:13;;;;;;;6.82;3.95;;;;;;;14.28;72.55;100527.19;4979789;28;20414;-72
2022/05/11 04:07:39;;;;;;;4.78;3.83;;;;;;;14.27;72.68;100520.22;4964780;28;20026;-73
2022/05/11 04:10:05;;;;;;;6.28;4.07;;;;;;;14.38;72.13;100519.91;4982720;28;20445;-73
2022/05/11 04:12:31;;;;;;;4.72;4.00;;;;;;;14.23;72.68;100524.22;4946944;28;20602;-74
2022/05/11 04:14:57;;;;;;;3.83;3.63;;;;;;;14.37;72.43;100530.72;4985325;28;20833;-73
2022/05/11 04:17:23;;;;;;;4.32;3.80;;;;;;;14.31;72.56;100528.69;4967359;28;20040;-74
2022/05/11 04:19:48;;;;;;;6.75;4.25;;;;;;;14.20;73.01;100529.84;4982731;28;20029;-74
2022/05/11 04:22:16;;;;;;;7.70;4.20;;;;;;;14.22;73.03;100528.69;4981572;28;20462;-73
2022/05/11 04:24:42;;;;;;;6.10;3.83;;;;;;;14.21;73.02;100520.88;4964333;28;20010;-74
2022/05/11 04:27:07;;;;;;;6.85;3.97;;;;;;;14.20;73.01;100527.19;4973363;28;20053;-73
2022/05/11 04:29:35;;;;;;;4.00;3.80;;;;;;;14.18;73.44;100524.69;4960932;28;20605;-73
2022/05/11 04:32:04;;;;;;;6.95;4.30;;;;;;;14.19;72.88;100520.22;4978389;28;20172;-73
2022/05/11 04:34:30;;;;;;;5.80;4.00;;;;;;;14.47;73.47;100519.88;4957679;28;20765;-74
2022/05/11 04:36:55;;;;;;;4.43;3.67;;;;;;;14.46;72.49;100526.22;4956475;28;20006;-73
2022/05/11 04:39:21;;;;;;;6.43;4.00;;;;;;;14.48;72.20;100529.53;4978704;28;20095;-73
2022/05/11 04:41:47;;;;;;;6.28;3.85;;;;;;;14.54;71.94;100528.88;4981432;28;20104;-73
2022/05/11 04:44:12;;;;;;;4.00;3.75;;;;;;;14.51;72.08;100526.53;4985849;28;20258;-73
2022/05/11 04:46:38;;;;;;;4.30;3.92;;;;;;;14.48;72.31;100524.19;4980992;28;21010;-73
2022/05/11 04:49:23;;;;;;;6.05;4.10;;;;;;;14.47;72.57;100527.84;4980072;28;20009;-74
2022/05/11 04:51:51;;;;;;;5.85;3.80;;;;;;;14.39;72.91;100523.38;4977424;28;20072;-75
2022/05/11 04:54:22;;;;;;;4.53;3.80;;;;;;;14.43;72.89;100522.03;4982253;28;20389;-73
2022/05/11 04:56:49;;;;;;;4.43;4.00;;;;;;;14.38;73.20;100527.88;4969477;28;20204;-73
2022/05/11 04:59:15;;;;;;;5.90;3.80;;;;;;;14.43;73.28;100522.88;4963976;28;20825;-74
2022/05/11 05:01:40;;;;;;;4.25;3.85;;;;;;;14.56;72.90;100521.53;4963499;28;20112;-72
2022/05/11 05:04:06;;;;;;;6.32;3.80;;;;;;;14.60;72.53;100528.19;4980889;28;20022;-72
2022/05/11 05:06:34;;;;;;;5.75;4.07;;;;;;;14.60;73.00;100517.53;4964049;28;20999;-73
2022/05/11 05:09:00;;;;;;;4.32;3.80;;;;;;;14.64;73.12;100520.72;4963008;28;20002;-73
2022/05/11 05:11:26;;;;;;;4.15;3.88;;;;;;;14.67;73.01;100512.41;5011871;28;20998;-73
2022/05/11 05:13:54;;;;;;;5.25;3.75;;;;;;;14.66;73.51;100521.38;4984918;28;20243;-72
2022/05/11 05:16:20;;;;;;;5.60;4.05;;;;;;;14.69;73.19;100521.03;4946236;28;20025;-72
2022/05/11 05:18:45;;;;;;;4.35;4.05;;;;;;;14.92;72.70;100521.16;4982206;28;20033;-72
2022/05/11 05:21:10;;;;;;;4.57;3.97;;;;;;;14.99;72.53;100522.16;4973905;28;20401;-73
2022/05/11 05:23:36;;;;;;;5.40;4.00;;;;;;;15.02;72.28;100521.78;4983569;28;20170;-75
2022/05/11 05:26:02;;;;;;;6.43;4.05;;;;;;;15.15;71.91;100528.44;4963791;28;20106;-72
2022/05/11 05:31:14;;;;;;;4.65;4.10;;;;;;;15.23;71.97;100533.69;4976736;28;20021;-73
2022/05/11 05:33:40;;;;;;;4.82;4.22;;;;;;;15.30;71.93;100529.38;4955971;28;20316;-73
2022/05/11 05:36:06;;;;;;;4.70;4.05;;;;;;;15.38;71.90;100537.31;4952767;28;20858;-72
2022/05/11 05:38:32;;;;;;;4.50;4.30;;;;;;;15.46;71.80;100531.13;4958382;28;20038;-73
2022/05/11 05:40:58;;;;;;;7.32;4.60;;;;;;;15.57;71.39;100529.91;4924427;28;20848;-72
2022/05/11 05:43:23;;;;;;;6.60;4.85;;;;;;;15.68;71.39;100532.19;4977089;28;20394;-73
2022/05/11 05:45:50;;;;;;;5.80;5.30;;;;;;;15.75;70.92;100533.13;4948972;28;20241;-72
2022/05/11 05:48:16;;;;;;;5.82;5.32;;;;;;;15.80;71.06;100528.13;4960391;28;20420;-73
2022/05/11 05:50:41;;;;;;;5.60;5.10;;;;;;;15.94;71.12;100531.03;4974456;28;20112;-72
2022/05/11 05:53:07;;;;;;;6.78;6.07;;;;;;;16.07;69.99;100535.78;4959064;28;20347;-73
2022/05/11 05:55:32;;;;;;;9.85;6.15;;;;;;;16.15;69.56;100527.72;4979365;28;20083;-74
2022/05/11 05:57:59;;;;;;;8.07;5.65;;;;;;;16.30;69.79;100530.41;4943349;28;20045;-73
2022/05/11 06:00:25;;;;;;;9.27;5.82;;;;;;;16.45;69.50;100536.63;4959735;28;20468;-73
2022/05/11 06:02:50;;;;;;;7.85;6.03;;;;;;;16.57;69.08;100531.72;4967320;28;20272;-74
2022/05/11 06:05:16;;;;;;;8.20;5.80;;;;;;;16.67;69.09;100526.09;4931413;28;20263;-74
2022/05/11 06:07:42;;;;;;;8.15;5.78;;;;;;;16.78;69.01;100528.31;4940085;28;20175;-74
2022/05/11 06:10:07;;;;;;;10.93;6.32;;;;;;;16.82;68.35;100534.97;4944793;28;20019;-72
2022/05/11 06:12:33;;;;;;;6.47;5.95;;;;;;;16.93;67.98;100538.22;4973890;28;20835;-73
2022/05/11 06:14:58;;;;;;;6.18;5.57;;;;;;;17.04;68.28;100524.41;4971683;28;20065;-72
2022/05/11 06:17:24;;;;;;;6.13;5.63;;;;;;;17.13;67.27;100530.47;4999799;28;20075;-73
2022/05/11 06:19:52;;;;;;;9.55;5.85;;;;;;;17.24;66.68;100532.69;4960573;28;20373;-72
2022/05/11 06:22:17;;;;;;;7.45;6.07;;;;;;;17.33;66.50;100530.75;4976415;28;20018;-73
2022/05/11 06:24:43;;;;;;;6.28;5.60;;;;;;;17.49;65.85;100522.50;4979483;28;20183;-74
2022/05/11 06:27:15;;;;;;;11.68;5.93;;;;;;;17.62;64.78;100518.31;4948788;28;20367;-73
2022/05/11 06:29:40;;;;;;;8.07;5.68;;;;;;;17.80;64.21;100525.94;4960320;28;20002;-74
2022/05/11 06:32:06;;;;;;;9.00;5.95;;;;;;;17.85;64.93;100521.66;4978380;28;20010;-73
2022/05/11 06:34:31;;;;;;;8.52;5.47;;;;;;;17.97;63.68;100527.38;4978602;28;20014;-72
2022/05/11 06:36:57;;;;;;;9.50;6.03;;;;;;;18.12;62.24;100515.75;4955097;28;20768;-73
2022/05/11 06:39:23;;;;;;;11.45;6.00;;;;;;;18.18;62.11;100520.34;4998604;28;20487;-73
2022/05/11 06:41:49;;;;;;;10.32;5.93;;;;;;;18.40;59.37;100523.81;4966618;28;20014;-73
2022/05/11 06:44:14;;;;;;;16.33;6.00;;;;;;;18.46;59.80;100522.25;4977904;28;20086;-74
2022/05/11 06:46:40;;;;;;;11.15;5.45;;;;;;;18.47;58.19;100521.19;4927008;28;20411;-72
2022/05/11 06:49:08;;;;;;;8.25;5.78;;;;;;;18.68;56.64;100520.31;4925492;28;20019;-72
2022/05/11 06:51:34;;;;;;;11.63;5.32;;;;;;;18.85;55.33;100526.22;4922910;28;20034;-73
2022/05/11 06:59:28;;;;;;;;;;;;;;;18.88;55.47;100523.16;4981604;28;20644;-72
2022/05/11 07:01:58;;;;;;;8.57;4.78;;;;;;;18.98;55.35;100517.44;4979283;28;20603;-72
2022/05/11 07:04:24;;;;;;;7.20;5.65;;;;;;;18.99;55.72;100519.91;4987776;28;20002;-73
2022/05/11 07:06:53;;;;;;;6.75;5.18;;;;;;;19.07;55.46;100521.63;4966350;28;20026;-74
2022/05/11 07:09:23;;;;;;;6.72;4.78;;;;;;;19.30;53.92;100518.63;4926846;28;20018;-73
2022/05/11 07:14:34;;;;;;;8.75;4.18;;;;;;;19.32;52.97;100518.44;4997312;28;20025;-76
2022/05/11 07:16:59;;;;;;;10.77;4.05;;;;;;;19.37;51.63;100527.56;4952633;28;20002;-72
2022/05/11 07:19:25;;;;;;;4.45;3.53;;;;;;;19.51;52.03;100517.69;4981901;28;20021;-73
2022/05/11 07:21:51;;;;;;;7.85;3.83;;;;;;;19.57;51.93;100524.09;4961663;28;20007;-73
2022/05/11 07:24:17;;;;;;;6.68;3.40;;;;;;;19.64;52.04;100518.75;4965016;28;20041;-74
2022/05/11 07:26:42;;;;;;;7.57;3.67;;;;;;;19.71;51.60;100522.28;4999874;28;20013;-74
2022/05/11 07:29:07;;;;;;;7.15;3.45;;;;;;;19.84;50.67;100519.66;4985767;28;20026;-73
2022/05/11 07:31:33;;;;;;;7.13;3.65;;;;;;;19.85;50.90;100515.94;5006309;28;20122;-73
2022/05/11 07:33:58;;;;;;;3.85;3.13;;;;;;;19.98;50.05;100517.00;4986809;28;20277;-73
2022/05/11 07:36:24;;;;;;;4.97;3.22;;;;;;;20.09;50.32;100516.38;4974432;28;20706;-73
2022/05/11 07:38:50;;;;;;;6.68;3.80;;;;;;;20.05;49.28;100523.19;4978318;28;20200;-73
2022/05/11 07:41:16;;;;;;;4.47;3.40;;;;;;;20.14;49.97;100521.16;4983170;28;20017;-72
2022/05/11 07:43:41;;;;;;;7.85;3.50;;;;;;;20.19;49.13;100524.03;4984482;28;20525;-73
2022/05/11 07:46:07;;;;;;;7.18;3.08;;;;;;;20.14;50.55;100521.97;4978532;28;20815;-72
2022/05/11 07:48:33;;;;;;;3.35;3.00;;;;;;;20.14;48.84;100507.72;4986751;28;20025;-73
2022/05/11 07:50:59;;;;;;;5.10;3.33;;;;;;;20.24;48.80;100522.41;4966082;28;20021;-73
2022/05/11 07:53:24;;;;;;;6.60;3.15;;;;;;;20.33;49.06;100525.69;4986027;28;20109;-73
2022/05/11 07:59:52;;;;;;;3.33;2.83;;;;;;;20.32;47.84;100518.69;4965653;28;20081;-74
2022/05/11 08:01:22;;;;;;;3.38;3.08;;;;;;;20.39;48.33;100521.34;4986308;28;20375;-74
2022/05/11 08:03:48;;;;;;;4.95;3.00;;;;;;;20.36;49.14;100519.09;4982238;28;20441;-72
2022/05/11 08:06:16;;;;;;;4.63;3.25;;;;;;;20.48;48.49;100516.63;5001389;28;20124;-73
2022/05/11 08:08:42;;;;;;;3.85;3.28;;;;;;;20.62;48.34;100512.06;5004107;27;20396;-73
2022/05/11 08:11:07;;;;;;;5.07;3.08;;;;;;;20.60;48.77;100509.56;4981234;28;20024;-73
2022/05/11 08:13:34;;;;;;;3.53;3.05;;;;;;;20.60;48.87;100509.56;4983182;28;20113;-74
2022/05/11 08:15:59;;;;;;;4.38;3.17;;;;;;;20.64;48.73;100515.34;4987287;28;20009;-73
2022/05/11 08:18:25;;;;;;;4.78;3.10;;;;;;;20.58;49.10;100501.69;4979369;28;20319;-73
2022/05/11 08:20:50;;;;;;;3.67;2.83;;;;;;;20.73;48.45;100516.84;4979695;28;20812;-73
2022/05/11 08:23:19;;;;;;;2.92;2.72;;;;;;;20.86;46.73;100519.47;4965032;28;20305;-75
2022/05/11 08:25:46;;;;;;;6.55;2.83;;;;;;;20.97;47.89;100515.31;4966433;28;20017;-73
2022/05/11 08:28:17;;;;;;;6.57;3.13;;;;;;;20.98;47.26;100511.56;4979344;28;20021;-72
2022/05/11 08:33:31;;;;;;;5.53;3.00;;;;;;;21.22;47.02;100512.75;5004526;28;20024;-74
2022/05/11 08:35:59;;;;;;;7.03;3.42;;;;;;;21.02;46.98;100515.50;4996213;28;20863;-73
2022/05/11 08:38:33;;;;;;;5.68;2.90;;;;;;;21.16;47.61;100507.41;4980287;28;20117;-74
2022/05/11 08:41:00;;;;;;;;;;;;;;;21.40;47.88;100522.00;4984275;28;20400;-74
2022/05/11 08:43:28;;;;;;;6.55;3.17;;;;;;;21.49;46.67;100509.94;4999897;28;20000;-73
2022/05/11 08:46:02;;;;;;;10.57;3.10;;;;;;;21.55;47.21;100514.50;4966873;28;20357;-74
2022/05/11 08:48:49;;;;;;;4.68;2.92;;;;;;;21.67;46.45;100503.03;4979343;28;20411;-74
2022/05/11 08:51:21;;;;;;;6.72;3.00;;;;;;;21.89;45.38;100507.03;4981008;28;20018;-74
2022/05/11 08:53:48;;;;;;;5.20;3.00;;;;;;;22.01;45.32;100509.88;4964531;28;20503;-73
2022/05/11 08:56:17;;;;;;;5.82;3.08;;;;;;;22.21;46.11;100509.72;4978061;28;20008;-72
2022/05/11 08:58:49;;;;;;;7.72;2.90;;;;;;;22.54;48.16;100508.63;4976942;28;20437;-73
2022/05/11 09:01:48;;;;;;;5.35;2.80;;;;;;;22.64;45.44;100508.94;4960670;28;20148;-73
2022/05/11 09:04:18;;;;;;;4.75;3.22;;;;;;;22.83;45.39;100503.56;4962116;28;20021;-73
2022/05/11 09:06:45;;;;;;;8.82;2.90;;;;;;;22.97;45.95;100502.38;4958173;28;20337;-73
2022/05/11 09:09:11;;;;;;;4.82;2.85;;;;;;;23.13;44.63;100500.97;4982634;28;20418;-72
2022/05/11 09:11:46;;;;;;;2.72;2.53;;;;;;;23.31;44.82;100497.44;4972026;28;20014;-73
2022/05/11 09:14:13;;;;;;;3.45;2.90;;;;;;;23.28;43.82;100503.28;4976860;28;20832;-74
2022/05/11 09:16:47;;;;;;;8.80;2.83;;;;;;;23.38;43.11;100496.50;4977856;28;20394;-73
2022/05/11 09:19:31;;;;;;;8.25;2.70;;;;;;;23.61;43.19;100491.19;4994830;28;20282;-73
2022/05/11 09:22:04;;;;;;;6.15;3.40;;;;;;;23.53;42.08;100483.41;4996537;28;20374;-74
2022/05/11 09:24:32;;;;;;;5.20;2.95;;;;;;;23.47;42.04;100487.84;4997560;28;20021;-73
2022/05/11 09:27:22;;;;;;;5.47;2.60;;;;;;;23.54;42.61;100473.47;4979476;28;20041;-73
2022/05/11 09:29:53;;;;;;;4.43;2.50;;;;;;;23.67;41.98;100484.88;4983739;28;20041;-73
2022/05/11 09:32:25;;;;;;;3.03;2.42;;;;;;;23.91;41.78;100484.97;4962904;28;20038;-74
2022/05/11 09:34:51;;;;;;;2.45;2.10;;;;;;;24.32;43.36;100485.97;4994123;28;20016;-74
2022/05/11 09:37:34;;;;;;;2.58;2.38;;;;;;;24.84;40.99;100479.84;4977808;28;20001;-74
2022/05/11 09:40:11;;;;;;;3.38;2.80;;;;;;;24.79;40.08;100484.31;4949010;28;20073;-73
2022/05/11 09:42:37;;;;;;;4.18;2.30;;;;;;;24.72;39.50;100478.22;4974862;28;20024;-73
2022/05/11 09:45:04;;;;;;;3.60;2.40;;;;;;;24.81;40.03;100477.59;4962053;28;20013;-73
2022/05/11 09:47:33;;;;;;;4.47;2.90;;;;;;;24.98;39.20;100479.59;4934151;28;20406;-73
2022/05/11 09:50:20;;;;;;;5.30;3.22;;;;;;;24.86;38.82;100466.91;4942283;28;20399;-74
2022/05/11 09:52:45;;;;;;;3.67;2.70;;;;;;;25.05;38.65;100471.34;4977791;28;20932;-74
2022/05/11 09:55:40;;;;;;;3.95;2.80;;;;;;;25.33;40.65;100467.84;4961104;28;20025;-73
2022/05/11 09:58:08;;;;;;;5.60;2.80;;;;;;;25.58;38.71;100467.50;4956016;28;20120;-74
2022/05/11 10:00:38;;;;;;;5.78;2.35;;;;;;;25.99;38.65;100461.94;4961685;28;20016;-73
2022/05/11 10:03:12;;;;;;;6.80;2.30;;;;;;;26.53;38.42;100469.56;4974266;28;20017;-73
2022/05/11 10:05:42;;;;;;;8.73;3.05;;;;;;;26.55;36.37;100462.81;4951585;28;20024;-73
2022/05/11 10:08:28;;;;;;;4.00;2.67;;;;;;;26.79;37.29;100461.78;4973096;28;20018;-73
2022/05/11 10:10:58;;;;;;;3.80;2.50;;;;;;;27.08;37.29;100452.38;4983355;28;20381;-74
2022/05/11 10:13:29;;;;;;;2.80;2.60;;;;;;;27.41;34.88;100456.03;4973795;28;20033;-74
2022/05/11 10:21:50;;;;;;;3.90;2.58;;;;;;;28.35;33.56;100455.72;4994521;28;20016;-73
2022/05/11 10:25:03;;;;;;;5.20;2.70;;;;;;;28.27;33.38;100445.31;4996646;28;20100;-72
2022/05/11 10:27:44;;;;;;;4.38;2.40;;;;;;;28.61;32.64;100440.34;4931282;28;20548;-73
2022/05/11 10:30:32;;;;;;;3.63;2.50;;;;;;;28.39;32.53;100445.94;4933316;28;20065;-73
2022/05/11 10:33:25;;;;;;;6.63;2.70;;;;;;;28.32;32.90;100444.53;4980100;28;21014;-74
2022/05/11 10:36:02;;;;;;;5.25;2.47;;;;;;;28.74;32.30;100444.50;4989187;28;20098;-73
2022/05/11 10:39:02;;;;;;;2.63;2.38;;;;;;;28.25;32.85;100428.44;4973234;28;20042;-73
2022/05/11 10:41:32;;;;;;;4.50;2.53;;;;;;;28.36;33.38;100432.88;4973915;28;20021;-73
2022/05/11 10:44:02;;;;;;;4.45;2.70;;;;;;;27.91;33.75;100418.66;4957477;28;20489;-73
2022/05/11 10:46:38;;;;;;;2.95;2.28;;;;;;;28.44;35.35;100431.53;4948628;28;20083;-73
2022/05/11 10:49:40;;;;;;;3.72;2.50;;;;;;;29.22;34.40;100428.03;4991722;28;20014;-74
2022/05/11 10:52:45;;;;;;;5.30;2.47;;;;;;;29.48;31.71;100421.84;4970227;28;20118;-74
2022/05/11 10:55:39;;;;;;;2.92;2.72;;;;;;;30.27;30.93;100416.91;4969764;28;20036;-74
2022/05/11 10:58:43;;;;;;;3.17;2.42;;;;;;;30.24;30.22;100406.53;4954472;28;20161;-73
2022/05/11 11:01:09;;;;;;;5.70;2.83;;;;;;;30.18;29.97;100407.63;4961725;28;20025;-74
2022/05/11 11:03:53;;;;;;;6.20;2.58;;;;;;;30.21;31.34;100413.34;4979319;28;20003;-74
2022/05/11 11:09:58;;;;;;;2.90;2.30;;;;;;;30.23;30.45;100404.88;4977263;28;20893;-73
2022/05/11 11:12:44;;;;;;;4.10;2.67;;;;;;;30.50;29.37;100401.81;4974562;28;20005;-74
2022/05/11 11:15:12;;;;;;;4.13;2.42;;;;;;;30.27;29.23;100389.59;4997094;28;20356;-74
2022/05/11 11:17:38;;;;;;;5.80;2.60;;;;;;;30.24;29.87;100384.69;4959803;28;20053;-74
2022/05/11 11:20:05;;;;;;;5.07;2.95;;;;;;;30.67;29.33;100387.81;4958859;28;21005;-74
2022/05/11 11:23:13;;;;;;;3.40;2.80;;;;;;;30.24;30.11;100380.03;4935377;28;20462;-74
2022/05/11 11:25:56;;;;;;;2.65;2.40;;;;;;;30.91;30.13;100382.53;4979767;28;20057;-73
2022/05/11 11:28:25;;;;;;;3.97;2.42;;;;;;;31.48;29.39;100374.75;4964428;28;20451;-74
2022/05/11 11:31:00;;;;;;;4.63;2.65;;;;;;;31.57;28.11;100377.69;4969487;28;20936;-73
2022/05/11 11:33:33;;;;;;;4.88;2.20;;;;;;;31.70;27.99;100376.25;5005153;28;20009;-73
2022/05/11 11:36:22;;;;;;;;;;;;;;;31.52;27.74;100366.81;4989558;28;20125;-73
2022/05/11 11:38:48;;;;;;;2.42;2.20;;;;;;;32.03;28.71;100362.78;4964929;28;19989;-74
2022/05/11 11:41:28;;;;;;;4.68;2.42;;;;;;;31.45;27.73;100358.94;4994998;28;20010;-73
2022/05/11 11:43:54;;;;;;;4.72;2.38;;;;;;;31.43;28.30;100363.03;4977041;28;20291;-74
2022/05/11 11:46:32;;;;;;;2.97;2.38;;;;;;;31.95;29.15;100352.47;5001936;28;20038;-74
2022/05/11 11:49:17;;;;;;;2.30;2.10;;;;;;;32.29;28.95;100354.31;5011437;28;20137;-74
2022/05/11 11:51:58;;;;;;;4.40;2.47;;;;;;;32.14;27.66;100358.84;5007652;28;20005;-73
2022/05/11 11:54:36;;;;;;;6.18;2.30;;;;;;;32.31;29.03;100349.38;5019961;28;20129;-73
2022/05/11 11:57:02;;;;;;;4.32;2.28;;;;;;;33.10;28.47;100354.31;5013825;27;20031;-73
2022/05/11 11:59:28;;;;;;;5.85;2.53;;;;;;;33.14;27.18;100341.63;5000612;28;20072;-74
2022/05/11 12:02:06;;;;;;;3.92;2.08;;;;;;;33.16;26.95;100349.56;5019909;27;20428;-74
2022/05/11 12:04:36;;;;;;;3.20;2.25;;;;;;;33.11;26.55;100345.00;5004920;28;20021;-75
2022/05/11 12:15:34;;;;;;;2.95;2.53;;;;;;;33.07;26.43;100343.94;5001574;28;20081;-74
2022/05/11 12:18:20;;;;;;;4.45;2.28;;;;;;;32.84;26.77;100334.69;4983656;28;20623;-74
2022/05/11 12:20:45;;;;;;;4.05;2.45;;;;;;;33.24;26.55;100337.94;4975092;28;20025;-74